Aviation Digital Data Service (ADDS)

Output produced by METARs form (0343 UTC 19 August 2019)
found at http://www.aviationweather.gov/metar/data/
 
Forecast for: VTBS (CHON BURI/SATTAH, TH)
Text: TAF VTBS 182300Z 1900/2006 23008KT 9999 FEW020
Forecast period: 0000 UTC 19 August 2019 to 0600 UTC 20 August 2019
Forecast type: FROM: standard forecast or significant change
Winds: from the SW (230 degrees) at 9 MPH (8 knots; 4.1 m/s)
Visibility: 6 or more miles 10+ km)
Ceiling: at least 12,000 feet AGL
Clouds: few clouds at 2000 feet AGL
Weather: no significant weather forecast for this period
Text: TEMPO 2002/2006 25015KT 5000 TSRA FEW018CB SCT030 BKN100
Forecast period: 0200 to 0600 UTC 20 August 2019
Forecast type: TEMPORARY: The following changes expected for less than half the time period
Winds: from the WSW (250 degrees) at 17 MPH (15 knots; 7.7 m/s)
Visibility: 3 miles (5 km)
Ceiling: 10000 feet AGL
Clouds: few clouds at 1800 feet AGL
scattered clouds at 3000 feet AGL
broken clouds at 10000 feet AGL
Weather: TSRA  (rain associated with thunderstorm(s))